createdAt,value
2023-01-23T05:02:56.301Z,96.95
2023-01-23T05:05:29.566Z,90.90
2023-01-23T05:08:05.574Z,94.28
2023-01-23T05:10:38.531Z,99.05
2023-01-23T05:13:13.674Z,99.60
2023-01-23T05:15:45.767Z,81.20
2023-01-23T05:18:18.221Z,86.50
2023-01-23T05:20:51.587Z,85.13
2023-01-23T05:23:23.613Z,84.55
2023-01-23T05:25:57.972Z,80.60
2023-01-23T05:28:30.846Z,78.32
2023-01-23T05:31:02.946Z,71.68
2023-01-23T05:33:43.905Z,74.05
2023-01-23T05:36:18.456Z,83.80
2023-01-23T05:38:50.884Z,78.68
2023-01-23T05:41:25.662Z,73.28
2023-01-23T05:44:17.474Z,87.03
2023-01-23T05:46:57.637Z,79.28
2023-01-23T05:49:29.691Z,86.82
2023-01-23T05:52:02.535Z,80.78
2023-01-23T05:54:34.653Z,72.65
2023-01-23T05:57:09.408Z,80.22
2023-01-23T05:59:41.484Z,73.07
2023-01-23T06:02:32.097Z,70.35
2023-01-23T06:05:27.445Z,70.65
2023-01-23T06:08:07.361Z,68.55
2023-01-23T06:10:39.616Z,68.47
2023-01-23T06:13:16.068Z,71.50
2023-01-23T06:15:48.153Z,68.45
2023-01-23T06:18:23.453Z,70.85
2023-01-23T06:21:01.057Z,69.60
2023-01-23T06:23:33.719Z,69.63
2023-01-23T06:26:06.511Z,68.88
2023-01-23T06:28:40.091Z,69.32
2023-01-23T06:31:13.057Z,70.18
2023-01-23T06:33:59.674Z,73.32
2023-01-23T06:36:36.250Z,72.47
2023-01-23T06:41:46.927Z,63.38
2023-01-23T06:44:28.003Z,71.07
2023-01-23T06:47:00.715Z,75.85
2023-01-23T06:49:33.165Z,65.75
2023-01-23T06:52:05.591Z,70.72
2023-01-23T06:54:37.648Z,76.68
2023-01-23T06:57:13.205Z,69.10
2023-01-23T06:59:45.194Z,73.55
2023-01-23T07:02:23.438Z,71.38
2023-01-23T07:04:56.383Z,74.45
2023-01-23T07:07:28.572Z,72.97
2023-01-23T07:10:00.681Z,78.18
2023-01-23T07:12:32.812Z,79.03
2023-01-23T07:15:05.257Z,87.45
2023-01-23T07:17:43.263Z,91.40
2023-01-23T07:20:15.629Z,97.13
2023-01-23T07:22:54.353Z,105.28
2023-01-23T07:25:30.301Z,110.88
2023-01-23T07:28:02.452Z,104.75
2023-01-23T07:30:34.762Z,112.57
2023-01-23T07:33:06.847Z,119.90
2023-01-23T07:35:40.297Z,122.65
2023-01-23T07:38:12.384Z,143.68
2023-01-23T07:40:45.532Z,178.82
2023-01-23T07:43:17.835Z,164.63
2023-01-23T07:45:50.445Z,192.32
2023-01-23T07:48:25.336Z,188.17
2023-01-23T07:50:57.494Z,211.07
2023-01-23T07:53:29.604Z,173.60
2023-01-23T07:56:05.554Z,204.88
2023-01-23T07:58:37.645Z,164.32
2023-01-23T08:01:13.012Z,236.50
2023-01-23T08:03:46.238Z,187.48
2023-01-23T08:06:18.293Z,189.02
2023-01-23T08:08:50.732Z,205.45
2023-01-23T08:11:24.099Z,248.05
2023-01-23T08:13:56.471Z,310.45
2023-01-23T08:16:28.532Z,204.00
2023-01-23T08:19:00.618Z,285.85
2023-01-23T08:21:33.218Z,195.77
2023-01-23T08:24:05.683Z,248.23
2023-01-23T08:26:38.830Z,231.60
2023-01-23T08:29:11.733Z,211.35
2023-01-23T08:31:43.828Z,217.50
2023-01-23T08:34:16.485Z,207.02
2023-01-23T08:36:48.684Z,165.20
2023-01-23T08:39:21.020Z,210.20
2023-01-23T08:41:53.439Z,214.73
2023-01-23T08:44:25.590Z,190.23
2023-01-23T08:46:58.905Z,205.20
2023-01-23T08:49:31.303Z,156.77
2023-01-23T08:52:05.816Z,171.50
2023-01-23T08:54:37.990Z,166.18
2023-01-23T08:57:10.316Z,173.57
2023-01-23T08:59:44.457Z,154.02
2023-01-23T09:04:49.297Z,138.18
2023-01-23T09:07:21.360Z,134.77
2023-01-23T09:09:55.102Z,137.15
2023-01-23T16:19:59.315Z,102.35
2023-01-23T16:22:32.572Z,97.68
2023-01-23T16:25:04.901Z,105.45
2023-01-23T16:27:37.086Z,107.13
2023-01-23T16:30:17.276Z,116.90
2023-01-23T16:32:50.359Z,107.47
2023-01-23T16:35:23.577Z,108.07
2023-01-23T16:37:55.983Z,104.43
2023-01-23T16:40:30.874Z,113.00
2023-01-23T16:43:03.804Z,107.32
2023-01-23T16:45:36.183Z,100.68
2023-01-23T16:48:10.964Z,115.00
2023-01-23T16:50:52.683Z,109.18
2023-01-23T16:53:34.555Z,109.95
2023-01-23T16:56:17.520Z,113.43
2023-01-23T16:58:50.605Z,96.57
2023-01-23T17:01:24.327Z,107.97
2023-01-23T17:04:02.475Z,106.47
2023-01-23T17:06:34.594Z,97.70
2023-01-23T17:09:07.156Z,103.28
2023-01-23T17:11:43.990Z,110.97
2023-01-23T17:14:31.070Z,109.38
2023-01-23T17:17:10.204Z,101.50
2023-01-23T17:19:44.197Z,115.03
2023-01-23T17:22:32.588Z,128.20
2023-01-23T17:25:13.317Z,117.70
2023-01-23T17:27:55.240Z,147.95
2023-01-23T17:30:40.740Z,87.27
2023-01-23T17:33:24.025Z,125.95
2023-01-23T17:35:56.356Z,112.20
2023-01-23T17:38:35.271Z,115.13
2023-01-23T17:41:12.649Z,117.68
2023-01-23T17:43:47.531Z,128.35
2023-01-23T17:46:26.988Z,124.97
2023-01-23T17:48:59.709Z,115.40
2023-01-23T17:51:36.255Z,110.90
2023-01-23T17:54:19.255Z,125.18
2023-01-23T17:56:51.603Z,124.55
2023-01-23T17:59:23.844Z,108.07
2023-01-23T18:01:58.118Z,109.60
2023-01-23T18:04:30.931Z,131.18
2023-01-23T18:07:06.104Z,113.60
2023-01-23T18:09:38.723Z,129.23
2023-01-23T18:12:17.617Z,104.57
2023-01-23T18:14:56.430Z,107.25
2023-01-23T18:17:56.322Z,107.57
2023-01-23T18:20:30.118Z,102.15
2023-01-23T18:23:02.799Z,93.55
2023-01-23T18:25:36.033Z,96.18
2023-01-23T18:28:19.530Z,100.57
2023-01-23T18:31:11.379Z,101.72
2023-01-23T18:33:52.698Z,105.43
2023-01-23T18:36:46.894Z,107.28
2023-01-23T18:42:43.104Z,104.10
2023-01-23T18:45:23.716Z,111.22
2023-01-23T18:50:31.592Z,95.60
2023-01-23T18:53:21.118Z,100.40
2023-01-23T18:56:22.570Z,107.55
2023-01-23T18:59:11.793Z,105.65
2023-01-23T19:01:45.161Z,100.97
2023-01-23T19:04:18.726Z,110.65
2023-01-23T19:06:52.187Z,112.90
2023-01-23T19:09:27.921Z,117.65
2023-01-23T19:12:20.555Z,118.00
2023-01-23T19:15:23.005Z,116.03
2023-01-23T19:18:13.797Z,111.75
2023-01-23T19:20:51.560Z,113.65
2023-01-23T19:23:39.141Z,122.70
2023-01-23T19:26:17.972Z,117.38
2023-01-23T19:28:50.826Z,115.13
2023-01-23T19:31:30.561Z,110.40
2023-01-23T19:34:04.853Z,128.73
2023-01-23T19:36:37.267Z,129.52
2023-01-23T19:39:10.964Z,122.30
2023-01-23T19:41:47.078Z,126.05
2023-01-23T19:44:24.269Z,141.13
2023-01-23T19:46:56.893Z,130.70
2023-01-23T19:49:29.306Z,123.40
2023-01-23T19:52:02.113Z,141.27
2023-01-23T19:54:34.949Z,137.00
2023-01-23T19:57:07.468Z,127.75
2023-01-23T19:59:39.541Z,120.47
2023-01-23T20:02:22.858Z,126.55
2023-01-23T20:04:57.858Z,132.82
